.
WxDataArchive / Data Records for 2012-12-13
2012-12-12 December 2012 2012-12-14

Data Records for Thursday, 13 December 2012

Time	Temp	Chill	HIndex	Humid	Dewpt	 Wind 	HiWind	WindDir	Rain 	Barom 
-----	----	-----	------	-----	-----	------	------	-------	-----	----- 
00:00	25.4	25.4	25.4	88	22.4	0	0	---	0.00	30.383 
00:05	25.4	25.4	25.4	87	22.1	0	0	---	0.00	30.383 
00:10	25.4	25.4	25.4	87	22.1	0	0	---	0.00	30.383 
00:15	25.4	25.4	25.4	87	22.1	0	0	---	0.00	30.381 
00:20	25.4	25.4	25.4	88	22.4	0	0	---	0.00	30.381 
00:25	25.4	25.4	25.4	88	22.4	0	0	---	0.00	30.381 
00:30	25.6	25.6	25.6	88	22.5	0	0	---	0.00	30.377 
00:35	25.4	25.4	25.4	87	22.1	0	0	---	0.00	30.377 
00:40	25.4	25.4	25.4	87	22.1	0	0	---	0.00	30.377 
00:45	25.1	25.1	25.1	87	21.8	0	0	---	0.00	30.374 
00:50	25.0	25.0	25.0	87	21.7	0	0	---	0.00	30.374 
00:55	24.7	24.7	24.7	87	21.4	0	0	---	0.00	30.374 
01:00	24.7	24.7	24.7	87	21.4	0	0	---	0.00	30.371 
01:05	24.7	24.7	24.7	87	21.4	0	0	---	0.00	30.371 
01:10	24.7	24.7	24.7	87	21.4	0	0	---	0.00	30.371 
01:15	24.7	24.7	24.7	87	21.4	0	0	---	0.00	30.369 
01:20	24.7	24.7	24.7	87	21.4	0	0	---	0.00	30.369 
01:25	24.7	24.7	24.7	87	21.4	0	0	---	0.00	30.369 
01:30	24.7	24.7	24.7	87	21.4	0	0	---	0.00	30.369 
01:35	24.7	24.7	24.7	87	21.4	0	0	---	0.00	30.369 
01:40	24.7	24.7	24.7	87	21.4	0	0	---	0.00	30.369 
01:45	24.7	24.7	24.7	87	21.4	0	0	---	0.00	30.369 
01:50	24.7	24.7	24.7	87	21.4	0	0	---	0.00	30.369 
01:55	24.7	24.7	24.7	87	21.4	0	0	---	0.00	30.369 
02:00	24.7	24.7	24.7	87	21.4	0	0	---	0.00	30.369 
02:05	24.5	24.5	24.5	88	21.5	0	0	---	0.00	30.369 
02:10	24.5	24.5	24.5	87	21.2	0	0	---	0.00	30.369 
02:15	24.5	24.5	24.5	87	21.2	0	0	---	0.00	30.369 
02:20	24.5	24.5	24.5	87	21.2	0	0	---	0.00	30.369 
02:25	24.4	24.4	24.4	87	21.1	0	0	---	0.00	30.369 
02:30	24.2	24.2	24.2	87	20.9	0	0	---	0.00	30.380 
02:35	24.2	24.2	24.2	87	20.9	0	0	---	0.00	30.380 
02:40	24.1	24.1	24.1	87	20.8	0	0	---	0.00	30.380 
02:45	24.1	24.1	24.1	87	20.8	0	0	---	0.00	30.382 
02:50	23.9	23.9	23.9	87	20.6	0	0	---	0.00	30.382 
02:55	23.9	23.9	23.9	87	20.6	0	0	---	0.00	30.382 
03:00	23.8	23.8	23.8	87	20.5	0	0	---	0.00	30.386 
03:05	23.6	23.6	23.6	87	20.3	0	0	---	0.00	30.386 
03:10	23.5	23.5	23.5	87	20.2	0	0	---	0.00	30.386 
03:15	23.5	23.5	23.5	87	20.2	0	0	---	0.00	30.385 
03:20	23.5	23.5	23.5	87	20.2	0	0	---	0.00	30.385 
03:25	23.3	23.3	23.3	87	20.0	0	0	---	0.00	30.385 
03:30	23.5	23.5	23.5	88	20.5	0	0	---	0.00	30.377 
03:35	23.5	23.5	23.5	87	20.2	0	0	---	0.00	30.377 
03:40	23.5	23.5	23.5	87	20.2	0	0	---	0.00	30.377 
03:45	23.2	23.2	23.2	87	19.9	0	0	---	0.00	30.384 
03:50	23.0	23.0	23.0	87	19.7	0	0	---	0.00	30.384 
03:55	23.2	23.2	23.2	88	20.2	0	0	---	0.00	30.384 
04:00	23.2	23.2	23.2	88	20.2	0	0	---	0.00	30.376 
04:05	23.2	23.2	23.2	88	20.2	0	0	---	0.00	30.376 
04:10	23.0	23.0	23.0	87	19.7	0	0	---	0.00	30.376 
04:15	22.9	22.9	22.9	87	19.6	0	0	---	0.00	30.385 
04:20	22.7	22.7	22.7	87	19.4	0	0	---	0.00	30.385 
04:25	22.5	22.5	22.5	87	19.2	0	0	---	0.00	30.385 
04:30	22.4	22.4	22.4	87	19.1	0	0	---	0.00	30.383 
04:35	22.2	22.2	22.2	87	18.9	0	0	---	0.00	30.383 
04:40	22.1	22.1	22.1	88	19.1	0	0	---	0.00	30.383 
04:45	22.1	22.1	22.1	88	19.1	0	0	---	0.00	30.382 
04:50	22.1	22.1	22.1	88	19.1	0	0	---	0.00	30.382 
04:55	22.1	22.1	22.1	88	19.1	0	0	---	0.00	30.382 
05:00	21.9	21.9	21.9	88	18.9	0	0	---	0.00	30.379 
05:05	21.8	21.8	21.8	88	18.8	0	0	---	0.00	30.379 
05:10	21.6	21.6	21.6	88	18.6	0	0	---	0.00	30.379 
05:15	21.6	21.6	21.6	88	18.6	0	0	---	0.00	30.384 
05:20	21.4	21.4	21.4	88	18.4	0	0	---	0.00	30.384 
05:25	21.3	21.3	21.3	88	18.3	0	0	---	0.00	30.384 
05:30	21.3	21.3	21.3	88	18.3	0	0	---	0.00	30.395 
05:35	21.1	21.1	21.1	88	18.1	0	0	---	0.00	30.395 
05:40	21.1	21.1	21.1	88	18.1	0	0	---	0.00	30.395 
05:45	21.0	21.0	21.0	88	18.0	0	0	---	0.00	30.391 
05:50	20.8	20.8	20.8	88	17.8	0	0	---	0.00	30.391 
05:55	20.8	20.8	20.8	88	17.8	0	0	---	0.00	30.391 
06:00	20.6	20.6	20.6	88	17.6	0	0	---	0.00	30.393 
06:05	20.6	20.6	20.6	88	17.6	0	0	---	0.00	30.393 
06:10	20.6	20.6	20.6	88	17.6	0	0	---	0.00	30.393 
06:15	21.1	21.1	21.1	89	18.4	0	0	---	0.00	30.397 
06:20	21.4	21.4	21.4	89	18.7	0	0	---	0.00	30.397 
06:25	21.6	21.6	21.6	89	18.9	0	0	---	0.00	30.397 
06:30	21.8	21.8	21.8	89	19.1	0	0	---	0.00	30.396 
06:35	22.2	22.2	22.2	90	19.7	0	0	---	0.00	30.396 
06:40	22.7	22.7	22.7	90	20.2	0	0	---	0.00	30.396 
06:45	22.9	22.9	22.9	90	20.4	0	0	---	0.00	30.398 
06:50	22.9	22.9	22.9	90	20.4	0	0	---	0.00	30.398 
06:55	22.9	22.9	22.9	89	20.2	0	0	---	0.00	30.398 
07:00	22.9	22.9	22.9	90	20.4	0	0	---	0.00	30.398 
07:05	22.9	22.9	22.9	90	20.4	0	0	---	0.00	30.398 
07:10	22.9	22.9	22.9	89	20.2	0	0	---	0.00	30.398 
07:15	22.7	22.7	22.7	89	20.0	0	0	---	0.00	30.401 
07:20	22.5	22.5	22.5	89	19.8	0	0	---	0.00	30.401 
07:25	22.5	22.5	22.5	89	19.8	0	0	---	0.00	30.401 
07:30	22.4	22.4	22.4	89	19.7	0	0	---	0.00	30.400 
07:35	22.2	22.2	22.2	89	19.5	0	0	---	0.00	30.400 
07:40	22.1	22.1	22.1	89	19.4	0	0	---	0.00	30.400 
07:45	22.2	22.2	22.2	89	19.5	0	0	---	0.00	30.404 
07:50	22.2	22.2	22.2	89	19.5	0	0	---	0.00	30.404 
07:55	22.2	22.2	22.2	89	19.5	0	0	---	0.00	30.404 
08:00	22.2	22.2	22.2	89	19.5	0	0	---	0.00	30.409 
08:05	22.2	22.2	22.2	89	19.5	0	0	---	0.00	30.409 
08:10	22.2	22.2	22.2	89	19.5	0	0	---	0.00	30.409 
08:15	22.4	22.4	22.4	90	19.9	0	0	---	0.00	30.411 
08:20	22.5	22.5	22.5	90	20.0	0	0	---	0.00	30.411 
08:25	22.9	22.9	22.9	90	20.4	0	0	---	0.00	30.411 
08:30	23.0	23.0	23.0	90	20.5	0	0	---	0.00	30.407 
08:35	23.5	23.5	23.5	90	21.0	0	0	---	0.00	30.407 
08:40	24.1	24.1	24.1	90	21.6	0	0	---	0.00	30.407 
08:45	24.5	24.5	24.5	90	22.0	0	0	---	0.00	30.401 
08:50	25.1	25.1	25.1	90	22.6	0	1	45	0.00	30.401 
08:55	25.8	25.8	25.8	90	23.3	0	1	45	0.00	30.401 
09:00	26.4	26.4	26.4	90	23.9	0	1	45	0.00	30.400 
09:05	27.0	27.0	27.0	89	24.2	0	1	45	0.00	30.400 
09:10	27.5	27.5	27.5	88	24.4	0	2	45	0.00	30.400 
09:15	28.1	28.1	28.1	87	24.7	0	1	45	0.00	30.399 
09:20	28.7	28.7	28.7	86	25.1	0	2	45	0.00	30.399 
09:25	29.3	29.3	29.3	84	25.1	0	2	45	0.00	30.399 
09:30	29.8	29.8	29.8	83	25.3	0	2	45	0.00	30.393 
09:35	30.4	30.4	30.4	82	25.6	0	2	45	0.00	30.393 
09:40	30.9	30.9	30.9	81	25.8	0	1	45	0.00	30.393 
09:45	31.3	31.3	31.3	81	26.2	0	1	45	0.00	30.388 
09:50	31.8	31.8	31.8	80	26.3	0	2	45	0.00	30.388 
09:55	32.1	32.1	32.1	79	26.3	0	3	225	0.00	30.388 
10:00	32.5	32.5	32.5	77	26.1	0	3	225	0.00	30.391 
10:05	32.9	32.9	32.9	76	26.2	0	3	225	0.00	30.391 
10:10	33.4	33.4	33.4	75	26.3	0	3	248	0.00	30.391 
10:15	33.7	33.7	33.7	74	26.3	1	3	90	0.00	30.379 
10:20	34.1	34.1	34.1	73	26.4	1	4	45	0.00	30.379 
10:25	34.4	34.4	34.4	71	26.0	1	5	248	0.00	30.379 
10:30	34.7	34.7	34.7	70	25.9	1	4	248	0.00	30.383 
10:35	35.0	35.0	35.0	70	26.2	1	4	270	0.00	30.383 
10:40	35.5	35.5	35.5	69	26.4	1	4	270	0.00	30.383 
10:45	35.8	35.8	35.8	68	26.3	1	3	248	0.00	30.384 
10:50	36.2	36.2	36.2	68	26.7	1	4	248	0.00	30.384 
10:55	36.5	36.5	36.5	67	26.6	1	4	248	0.00	30.384 
11:00	36.8	36.8	36.8	66	26.5	1	4	248	0.00	30.385 
11:05	37.2	37.2	37.2	64	26.2	2	5	248	0.00	30.385 
11:10	37.5	37.5	37.5	64	26.4	1	4	248	0.00	30.385 
11:15	37.8	37.8	37.8	63	26.4	1	5	248	0.00	30.377 
11:20	37.9	37.9	37.9	63	26.4	1	4	248	0.00	30.377 
11:25	38.2	38.2	38.2	62	26.3	1	4	248	0.00	30.377 
11:30	38.3	38.3	38.3	61	26.0	2	5	248	0.00	30.371 
11:35	38.3	38.3	38.3	61	26.0	1	5	248	0.00	30.371 
11:40	38.5	38.5	38.5	60	25.8	2	5	248	0.00	30.371 
11:45	38.8	38.8	38.8	60	26.1	1	4	248	0.00	30.358 
11:50	38.9	38.9	38.9	60	26.2	1	3	248	0.00	30.358 
11:55	39.2	39.2	39.2	59	26.1	1	3	248	0.00	30.358 
12:00	39.5	39.5	39.5	60	26.8	0	2	248	0.00	30.354 
12:05	39.8	39.8	39.8	60	27.1	0	3	248	0.00	30.354 
12:10	39.9	39.9	39.9	58	26.3	2	5	248	0.00	30.354 
12:15	39.8	39.8	39.8	58	26.2	1	4	248	0.00	30.351 
12:20	39.9	39.9	39.9	57	25.9	1	5	248	0.00	30.351 
12:25	40.1	40.1	40.1	58	26.5	0	5	90	0.00	30.351 
12:30	40.5	40.5	40.5	58	26.9	1	4	90	0.00	30.347 
12:35	40.6	40.6	40.6	56	26.1	1	3	90	0.00	30.347 
12:40	40.9	40.9	40.9	55	26.0	1	4	68	0.00	30.347 
12:45	41.1	41.1	41.1	55	26.2	1	3	248	0.00	30.338 
12:50	41.2	41.2	41.2	54	25.8	1	4	248	0.00	30.338 
12:55	41.3	41.3	41.3	55	26.4	1	4	248	0.00	30.338 
13:00	41.5	41.5	41.5	54	26.1	1	9	248	0.00	30.335 
13:05	41.6	41.6	41.6	55	26.6	1	4	270	0.00	30.335 
13:10	41.8	41.8	41.8	55	26.8	1	3	270	0.00	30.335 
13:15	42.1	42.1	42.1	53	26.2	1	4	248	0.00	30.327 
13:20	42.2	42.2	42.2	52	25.9	1	4	248	0.00	30.327 
13:25	42.3	42.3	42.3	53	26.4	1	5	90	0.00	30.327 
13:30	42.5	42.5	42.5	53	26.6	1	4	90	0.00	30.320 
13:35	42.6	42.6	42.6	52	26.2	1	4	68	0.00	30.320 
13:40	42.8	42.8	42.8	51	25.9	1	5	68	0.00	30.320 
13:45	42.9	42.9	42.9	51	26.0	1	3	45	0.00	30.308 
13:50	43.1	43.1	43.1	49	25.3	1	5	112	0.00	30.308 
13:55	43.1	43.1	43.1	49	25.3	1	4	90	0.00	30.308 
14:00	43.2	43.2	43.2	50	25.8	1	3	90	0.00	30.299 
14:05	43.3	43.3	43.3	50	25.9	1	5	90	0.00	30.299 
14:10	43.6	43.6	43.6	50	26.2	1	3	248	0.00	30.299 
14:15	43.6	43.6	43.6	48	25.2	2	5	270	0.00	30.295 
14:20	43.6	43.6	43.6	48	25.2	2	5	90	0.00	30.295 
14:25	43.6	43.6	43.6	49	25.7	1	5	45	0.00	30.295 
14:30	43.5	43.5	43.5	47	24.6	2	6	90	0.00	30.288 
14:35	43.5	43.5	43.5	47	24.6	1	5	248	0.00	30.288 
14:40	43.6	43.6	43.6	46	24.2	1	4	248	0.00	30.288 
14:45	43.8	43.8	43.8	46	24.4	1	4	248	0.00	30.287 
14:50	43.9	43.9	43.9	46	24.5	1	6	248	0.00	30.287 
14:55	44.1	44.1	44.1	46	24.7	1	4	248	0.00	30.287 
15:00	44.2	44.2	44.2	45	24.2	1	5	270	0.00	30.285 
15:05	44.1	44.1	44.1	45	24.1	1	6	68	0.00	30.285 
15:10	44.1	44.1	44.1	45	24.1	1	6	248	0.00	30.285 
15:15	43.9	43.9	43.9	45	23.9	1	3	248	0.00	30.283 
15:20	43.9	43.9	43.9	46	24.5	1	4	248	0.00	30.283 
15:25	44.1	44.1	44.1	45	24.1	1	7	248	0.00	30.283 
15:30	44.1	44.1	44.1	44	23.6	1	5	248	0.00	30.273 
15:35	43.9	43.9	43.9	46	24.5	1	4	22	0.00	30.273 
15:40	43.9	43.9	43.9	46	24.5	1	5	0	0.00	30.273 
15:45	43.6	43.6	43.6	47	24.7	2	5	90	0.00	30.258 
15:50	43.5	43.5	43.5	48	25.1	1	4	90	0.00	30.258 
15:55	43.2	43.2	43.2	47	24.3	1	5	90	0.00	30.258 
16:00	43.1	43.1	43.1	47	24.3	1	4	68	0.00	30.258 
16:05	43.1	43.1	43.1	47	24.3	1	7	68	0.00	30.258 
16:10	43.1	43.1	43.1	46	23.7	1	4	248	0.00	30.258 
16:15	43.1	43.1	43.1	46	23.7	0	2	248	0.00	30.261 
16:20	43.1	43.1	43.1	47	24.3	0	3	248	0.00	30.261 
16:25	42.8	42.8	42.8	50	25.5	1	3	248	0.00	30.261 
16:30	42.6	42.6	42.6	50	25.3	0	2	248	0.00	30.259 
16:35	42.5	42.5	42.5	51	25.7	1	3	248	0.00	30.259 
16:40	42.5	42.5	42.5	52	26.1	1	6	90	0.00	30.259 
16:45	42.3	42.3	42.3	52	25.9	1	3	90	0.00	30.254 
16:50	42.1	42.1	42.1	52	25.8	1	3	90	0.00	30.254 
16:55	41.8	41.8	41.8	51	25.0	1	3	90	0.00	30.254 
17:00	41.5	41.5	41.5	51	24.7	0	3	90	0.00	30.251 
17:05	41.2	41.2	41.2	52	24.9	0	2	90	0.00	30.251 
17:10	40.8	40.8	40.8	52	24.6	0	1	90	0.00	30.251 
17:15	40.3	40.3	40.3	53	24.5	0	1	90	0.00	30.253 
17:20	39.9	39.9	39.9	54	24.6	0	1	90	0.00	30.253 
17:25	39.5	39.5	39.5	55	24.7	0	1	90	0.00	30.253 
17:30	39.1	39.1	39.1	56	24.7	0	1	90	0.00	30.250 
17:35	38.8	38.8	38.8	57	24.9	0	1	90	0.00	30.250 
17:40	38.6	38.6	38.6	58	25.1	0	1	90	0.00	30.250 
17:45	38.3	38.3	38.3	58	24.8	0	1	90	0.00	30.249 
17:50	38.2	38.2	38.2	59	25.2	0	1	90	0.00	30.249 
17:55	37.9	37.9	37.9	59	24.9	0	1	90	0.00	30.249 
18:00	37.6	37.6	37.6	60	25.0	0	0	---	0.00	30.249 
18:05	37.3	37.3	37.3	61	25.1	0	0	---	0.00	30.249 
18:10	37.0	37.0	37.0	61	24.8	0	1	90	0.00	30.249 
18:15	36.9	36.9	36.9	62	25.1	0	1	90	0.00	30.246 
18:20	36.6	36.6	36.6	62	24.8	0	1	90	0.00	30.246 
18:25	36.5	36.5	36.5	62	24.7	0	1	90	0.00	30.246 
18:30	36.5	36.5	36.5	62	24.7	0	1	90	0.00	30.241 
18:35	36.3	36.3	36.3	63	24.9	0	2	90	0.00	30.241 
18:40	36.3	36.3	36.3	63	24.9	0	1	90	0.00	30.241 
18:45	36.3	36.3	36.3	63	24.9	0	1	90	0.00	30.235 
18:50	36.3	36.3	36.3	63	24.9	0	0	---	0.00	30.235 
18:55	36.2	36.2	36.2	63	24.8	0	1	90	0.00	30.235 
19:00	36.0	36.0	36.0	64	25.0	0	1	90	0.00	30.243 
19:05	36.0	36.0	36.0	65	25.4	0	2	90	0.00	30.243 
19:10	36.0	36.0	36.0	65	25.4	0	2	90	0.00	30.243 
19:15	35.9	35.9	35.9	65	25.3	0	2	90	0.00	30.243 
19:20	35.9	35.9	35.9	65	25.3	0	1	90	0.00	30.243 
19:25	35.9	35.9	35.9	66	25.7	0	2	90	0.00	30.243 
19:30	35.8	35.8	35.8	66	25.6	0	1	90	0.00	30.235 
19:35	35.8	35.8	35.8	67	25.9	0	2	90	0.00	30.235 
19:40	35.8	35.8	35.8	67	25.9	0	2	90	0.00	30.235 
19:45	35.8	35.8	35.8	67	25.9	0	1	90	0.00	30.232 
19:50	35.8	35.8	35.8	67	25.9	0	1	90	0.00	30.232 
19:55	35.6	35.6	35.6	67	25.7	0	1	90	0.00	30.232 
20:00	35.6	35.6	35.6	68	26.1	1	2	90	0.00	30.231 
20:05	35.6	35.6	35.6	68	26.1	0	2	90	0.00	30.231 
20:10	35.6	35.6	35.6	68	26.1	0	1	90	0.00	30.231 
20:15	35.6	35.6	35.6	68	26.1	0	2	90	0.00	30.226 
20:20	35.5	35.5	35.5	69	26.4	0	1	90	0.00	30.226 
20:25	35.5	35.5	35.5	69	26.4	0	1	90	0.00	30.226 
20:30	35.5	35.5	35.5	69	26.4	0	4	135	0.00	30.227 
20:35	35.6	35.6	35.6	68	26.1	0	4	90	0.00	30.227 
20:40	35.8	35.8	35.8	68	26.3	0	2	90	0.00	30.227 
20:45	35.9	35.9	35.9	67	26.0	0	2	90	0.00	30.225 
20:50	36.0	36.0	36.0	67	26.1	0	2	90	0.00	30.225 
20:55	36.0	36.0	36.0	67	26.1	0	3	22	0.00	30.225 
21:00	36.0	36.0	36.0	67	26.1	0	2	22	0.00	30.222 
21:05	36.0	36.0	36.0	67	26.1	0	2	22	0.00	30.222 
21:10	35.9	35.9	35.9	67	26.0	0	2	22	0.00	30.222 
21:15	35.9	35.9	35.9	67	26.0	0	2	22	0.00	30.211 
21:20	35.9	35.9	35.9	68	26.4	0	1	22	0.00	30.211 
21:25	35.8	35.8	35.8	68	26.3	0	2	22	0.00	30.211 
21:30	35.8	35.8	35.8	68	26.3	0	3	22	0.00	30.206 
21:35	35.8	35.8	35.8	68	26.3	0	3	45	0.00	30.206 
21:40	35.6	35.6	35.6	68	26.1	0	2	45	0.00	30.206 
21:45	35.5	35.5	35.5	69	26.4	0	2	45	0.00	30.207 
21:50	35.3	35.3	35.3	69	26.2	0	2	45	0.00	30.207 
21:55	35.3	35.3	35.3	69	26.2	0	1	45	0.00	30.207 
22:00	35.0	35.0	35.0	69	25.9	0	1	45	0.00	30.203 
22:05	35.0	35.0	35.0	69	25.9	0	2	45	0.00	30.203 
22:10	34.9	34.9	34.9	69	25.8	0	3	45	0.00	30.203 
22:15	34.9	34.9	34.9	70	26.1	0	2	45	0.00	30.190 
22:20	34.9	34.9	34.9	70	26.1	0	2	45	0.00	30.190 
22:25	34.9	34.9	34.9	70	26.1	0	4	112	0.00	30.190 
22:30	34.7	34.7	34.7	70	25.9	0	1	112	0.00	30.193 
22:35	34.7	34.7	34.7	70	25.9	0	2	112	0.00	30.193 
22:40	34.7	34.7	34.7	69	25.6	0	2	112	0.00	30.193 
22:45	34.7	34.7	34.7	69	25.6	0	2	225	0.00	30.200 
22:50	34.9	34.9	34.9	69	25.8	0	3	225	0.00	30.200 
22:55	35.0	35.0	35.0	69	25.9	0	3	225	0.00	30.200 
23:00	35.0	35.0	35.0	68	25.5	0	2	225	0.00	30.202 
23:05	35.2	35.2	35.2	68	25.7	0	2	225	0.00	30.202 
23:10	35.0	35.0	35.0	68	25.5	0	1	225	0.00	30.202 
23:15	35.0	35.0	35.0	68	25.5	0	3	225	0.00	30.203 
23:20	35.0	35.0	35.0	68	25.5	0	1	225	0.00	30.203 
23:25	34.9	34.9	34.9	67	25.1	0	2	225	0.00	30.203 
23:30	34.9	34.9	34.9	67	25.1	0	0	---	0.00	30.218 
23:35	34.9	34.9	34.9	67	25.1	0	1	225	0.00	30.218 
23:40	34.7	34.7	34.7	67	24.9	0	1	225	0.00	30.218 
23:45	34.6	34.6	34.6	67	24.8	0	1	225	0.00	30.223 
23:50	34.6	34.6	34.6	67	24.8	0	1	225	0.00	30.223 
23:55	34.4	34.4	34.4	67	24.6	0	0	---	0.00	30.223 

CoCoRaHS
IN-AL-39
A2 Web Hosting
Creative Commons License
GoDaddy
search engine by freefind advanced

loaded 2018-11-20 06:37:20 • last modified 2010-11-18 10:43:29
Privacy PolicyDisclaimer
• wx.awcolley.com is powered by PmWiki v.2002016 •
• all content (unless otherwise noted) © 2018 A W Colley